Time;durP1;ratioP1;P1;durP2;ratioP2;P2;SDS_P1;SDS_P2;PMS_P1;PMS_P2;Temp;Humidity;BMP_temperature;BMP_pressure;BME280_temperature;BME280_humidity;BME280_pressure;Samples;Min_cycle;Max_cycle;Signal;HPM_P1;HPM_P2
2023/09/05 00:00:04;;;;;;;6.00;4.67;;;16.70;1.00;;;;;;5030891;28;20436;-54
2023/09/05 00:02:29;;;;;;;6.73;5.70;;;16.70;99.90;;;;;;5025317;28;20947;-55
2023/09/05 00:04:56;;;;;;;6.70;5.70;;;16.60;99.90;;;;;;5023565;28;20473;-55
2023/09/05 00:07:21;;;;;;;7.57;5.50;;;16.40;1.00;;;;;;5023987;28;20202;-55
2023/09/05 00:09:47;;;;;;;8.23;5.87;;;16.10;1.00;;;;;;5021914;28;20442;-55
2023/09/05 00:12:13;;;;;;;7.10;6.20;;;16.00;54.50;;;;;;5022575;28;20470;-55
2023/09/05 00:14:38;;;;;;;7.20;6.20;;;15.90;1.00;;;;;;5024576;28;20176;-55
2023/09/05 00:17:04;;;;;;;7.30;5.10;;;15.80;99.90;;;;;;5024471;28;20188;-55
2023/09/05 00:19:29;;;;;;;6.43;5.83;;;16.00;99.90;;;;;;5020576;28;20231;-54
2023/09/05 00:21:55;;;;;;;7.20;5.30;;;16.00;1.00;;;;;;5025226;28;20243;-54
2023/09/05 00:24:33;;;;;;;8.63;6.17;;;16.10;1.00;;;;;;5023658;28;20227;-55
2023/09/05 00:27:03;;;;;;;6.50;5.70;;;16.20;99.90;;;;;;5018603;28;20189;-53
2023/09/05 00:29:30;;;;;;;6.67;5.70;;;16.20;99.90;;;;;;5017886;28;20440;-55
2023/09/05 00:31:59;;;;;;;6.63;5.40;;;16.30;99.90;;;;;;5020180;28;20966;-55
2023/09/05 00:34:28;;;;;;;6.50;5.70;;;16.40;99.90;;;;;;5020357;28;20976;-55
2023/09/05 00:36:54;;;;;;;5.80;5.27;;;16.40;1.00;;;;;;5020651;28;20431;-55
2023/09/05 00:39:20;;;;;;;5.87;5.37;;;16.40;1.00;;;;;;5025206;28;20494;-54
2023/09/05 00:41:46;;;;;;;6.97;5.63;;;16.30;1.00;;;;;;5024777;28;20203;-52
2023/09/05 00:44:14;;;;;;;6.93;6.03;;;16.40;1.00;;;;;;5019672;28;20872;-53
2023/09/05 00:46:42;;;;;;;6.03;5.17;;;16.30;1.00;;;;;;5021675;28;20485;-53
2023/09/05 00:49:10;;;;;;;7.13;5.57;;;16.30;1.00;;;;;;5025027;28;20453;-52
2023/09/05 00:51:37;;;;;;;7.27;5.90;;;16.30;1.00;;;;;;5019993;28;20966;-53
2023/09/05 00:54:04;;;;;;;5.80;5.20;;;16.30;1.00;;;;;;5025347;28;20438;-53
2023/09/05 00:56:30;;;;;;;6.87;5.30;;;16.30;1.00;;;;;;5022309;28;20491;-54
2023/09/05 00:58:56;;;;;;;5.93;5.20;;;16.20;1.00;;;;;;5020309;28;21010;-56
2023/09/05 01:01:22;;;;;;;6.27;5.67;;;16.20;1.00;;;;;;5022076;28;20546;-54
2023/09/05 01:03:49;;;;;;;5.53;5.00;;;16.30;1.00;;;;;;5023441;28;20500;-55
2023/09/05 01:06:27;;;;;;;6.53;5.03;;;16.30;1.00;;;;;;5020257;28;20446;-55
2023/09/05 01:09:01;;;;;;;7.23;5.17;;;16.20;1.00;;;;;;5022260;28;20846;-53
2023/09/05 01:11:27;;;;;;;5.40;4.90;;;16.20;1.00;;;;;;5024385;28;20431;-56
2023/09/05 01:13:53;;;;;;;7.43;5.53;;;16.10;1.00;;;;;;5021538;28;20470;-53
2023/09/05 01:16:18;;;;;;;7.40;5.00;;;16.00;1.00;;;;;;5022912;28;20515;-51
2023/09/05 01:18:45;;;;;;;5.23;4.73;;;16.00;99.90;;;;;;5019929;28;20231;-54
2023/09/05 01:21:27;;;;;;;5.77;5.17;;;16.00;99.90;;;;;;5021402;28;20667;-55
2023/09/05 01:24:21;;;;;;;6.60;4.70;;;16.10;1.00;;;;;;5023565;28;20478;-54
2023/09/05 01:26:52;;;;;;;5.33;4.80;;;16.20;1.00;;;;;;5022425;28;20452;-53
2023/09/05 01:29:25;;;;;;;6.17;5.40;;;16.20;1.00;;;;;;5021670;28;20458;-55
2023/09/05 01:31:52;;;;;;;5.80;4.77;;;16.20;1.00;;;;;;5024435;28;20443;-55
2023/09/05 01:34:18;;;;;;;5.83;5.10;;;16.20;1.00;;;;;;5019805;28;20951;-55
2023/09/05 01:36:43;;;;;;;8.00;5.10;;;16.10;1.00;;;;;;5022317;28;20441;-52
2023/09/05 01:39:09;;;;;;;6.33;4.63;;;16.10;1.00;;;;;;5022292;28;20236;-55
2023/09/05 01:41:35;;;;;;;5.90;4.70;;;16.10;1.00;;;;;;5020295;28;20292;-55
2023/09/05 01:44:00;;;;;;;5.27;4.77;;;16.10;1.00;;;;;;5018339;28;20318;-53
2023/09/05 01:46:26;;;;;;;5.43;4.83;;;16.10;1.00;;;;;;5016516;28;20199;-54
2023/09/05 01:48:51;;;;;;;6.93;4.40;;;16.10;1.00;;;;;;5019080;28;20682;-55
2023/09/05 01:51:17;;;;;;;5.33;4.53;;;16.10;1.00;;;;;;5023177;28;20181;-55
2023/09/05 01:53:42;;;;;;;4.73;4.23;;;16.20;1.00;;;;;;5027379;28;20692;-59
2023/09/05 01:56:08;;;;;;;6.27;5.03;;;16.20;1.00;;;;;;5027262;28;20560;-54
2023/09/05 01:58:34;;;;;;;6.53;5.50;;;16.10;1.00;;;;;;5024237;28;20286;-54
2023/09/05 02:01:03;;;;;;;5.90;4.77;;;15.90;1.00;;;;;;5022545;28;20180;-53
2023/09/05 02:03:29;;;;;;;5.53;4.40;;;15.90;1.00;;;;;;5024138;28;20882;-54
2023/09/05 02:05:54;;;;;;;4.87;4.37;;;16.00;1.00;;;;;;5022954;28;20445;-55
2023/09/05 02:08:20;;;;;;;4.93;4.43;;;16.10;1.00;;;;;;5029359;28;20179;-54
2023/09/05 02:10:46;;;;;;;5.80;5.30;;;16.10;1.00;;;;;;5025225;28;20598;-55
2023/09/05 02:13:12;;;;;;;5.37;4.83;;;16.00;1.00;;;;;;5023336;28;20187;-53
2023/09/05 02:15:38;;;;;;;4.83;4.43;;;16.00;1.00;;;;;;5024002;28;20935;-54
2023/09/05 02:18:10;;;;;;;25.67;5.63;;;16.00;99.90;;;;;;5026437;28;20448;-54
2023/09/05 02:20:40;;;;;;;5.43;4.90;;;16.00;1.00;;;;;;5026943;28;20237;-55
2023/09/05 02:23:06;;;;;;;6.57;4.40;;;16.00;1.00;;;;;;5024921;28;20982;-54
2023/09/05 02:25:32;;;;;;;5.43;4.93;;;16.00;1.00;;;;;;5025952;28;20937;-55
2023/09/05 02:27:58;;;;;;;6.70;4.50;;;16.00;1.00;;;;;;5022331;28;20476;-53
2023/09/05 02:30:25;;;;;;;6.83;4.60;;;16.00;1.00;;;;;;5024221;28;20234;-55
2023/09/05 02:32:54;;;;;;;7.30;4.83;;;16.00;1.00;;;;;;5022571;28;20230;-54
2023/09/05 02:35:26;;;;;;;6.27;4.73;;;16.00;1.00;;;;;;5025860;28;20441;-55
2023/09/05 02:37:53;;;;;;;5.00;4.50;;;16.10;1.00;;;;;;5026733;28;20439;-54
2023/09/05 02:40:19;;;;;;;4.83;4.43;;;16.00;1.00;;;;;;5025004;28;20470;-55
2023/09/05 02:42:45;;;;;;;6.23;4.80;;;16.00;1.00;;;;;;5026662;28;20476;-53
2023/09/05 02:45:17;;;;;;;5.40;4.90;;;16.00;1.00;;;;;;5023794;28;21282;-55
2023/09/05 02:47:42;;;;;;;5.37;4.87;;;15.90;1.00;;;;;;5023263;28;20210;-54
2023/09/05 02:50:08;;;;;;;4.83;4.33;;;15.80;1.00;;;;;;5023941;28;20440;-55
2023/09/05 02:52:34;;;;;;;6.77;6.07;;;15.70;1.00;;;;;;5025504;28;20284;-53
2023/09/05 02:55:02;;;;;;;6.97;5.50;;;15.60;1.00;;;;;;5027296;28;20791;-54
2023/09/05 02:57:28;;;;;;;7.20;5.20;;;15.40;45.60;;;;;;5025409;28;20203;-55
2023/09/05 02:59:54;;;;;;;6.13;5.03;;;15.40;1.00;;;;;;5023551;28;20430;-55
2023/09/05 03:02:23;;;;;;;8.10;4.87;;;15.40;1.00;;;;;;5026064;28;20189;-54
2023/09/05 03:04:54;;;;;;;6.13;5.03;;;15.50;1.00;;;;;;5025494;28;20321;-54
2023/09/05 03:07:21;;;;;;;5.07;4.57;;;15.50;99.90;;;;;;5028118;28;20441;-55
2023/09/05 03:09:50;;;;;;;4.50;4.10;;;15.60;99.90;;;;;;5022264;28;20439;-54
2023/09/05 03:12:16;;;;;;;5.00;4.10;;;15.70;8.90;;;;;;5024241;28;20438;-55
2023/09/05 03:14:41;;;;;;;4.60;4.20;;;15.70;1.00;;;;;;5025301;28;20517;-54
2023/09/05 03:17:09;;;;;;;5.67;5.07;;;15.70;1.00;;;;;;5023909;28;20214;-54
2023/09/05 03:19:38;;;;;;;5.50;5.00;;;15.70;1.00;;;;;;5021928;28;20671;-54
2023/09/05 03:22:04;;;;;;;5.83;5.33;;;15.50;1.00;;;;;;5024739;28;20495;-53
2023/09/05 03:24:29;;;;;;;5.47;4.90;;;15.30;1.00;;;;;;5024584;28;20474;-53
2023/09/05 03:26:55;;;;;;;5.40;4.63;;;15.30;1.00;;;;;;5026139;28;20457;-55
2023/09/05 03:29:21;;;;;;;5.70;4.77;;;15.40;1.00;;;;;;5027215;28;20207;-54
2023/09/05 03:31:46;;;;;;;4.97;4.47;;;15.50;99.90;;;;;;5024204;28;20194;-54
2023/09/05 03:34:12;;;;;;;5.90;4.23;;;15.50;18.30;;;;;;5028878;28;20186;-55
2023/09/05 03:36:37;;;;;;;6.67;4.77;;;15.60;1.00;;;;;;5026423;28;20193;-55
2023/09/05 03:39:03;;;;;;;5.13;4.30;;;15.60;1.00;;;;;;5023232;28;20640;-53
2023/09/05 03:41:30;;;;;;;5.03;4.63;;;15.70;1.00;;;;;;5023409;28;20180;-54
2023/09/05 03:43:56;;;;;;;5.40;4.63;;;15.70;1.00;;;;;;5022770;28;20620;-54
2023/09/05 03:46:21;;;;;;;5.90;5.20;;;15.70;1.00;;;;;;5024965;28;20518;-54
2023/09/05 03:48:49;;;;;;;5.70;5.00;;;15.70;1.00;;;;;;5023875;28;20649;-55
2023/09/05 03:51:15;;;;;;;5.53;4.70;;;15.70;1.00;;;;;;5027970;28;20635;-54
2023/09/05 03:53:40;;;;;;;6.23;5.20;;;15.60;40.80;;;;;;5021954;28;20430;-54
2023/09/05 03:56:06;;;;;;;5.90;5.23;;;15.60;99.90;;;;;;5023915;28;20267;-54
2023/09/05 03:58:31;;;;;;;7.77;5.00;;;15.60;94.10;;;;;;5022360;28;20255;-56
2023/09/05 04:01:02;;;;;;;6.63;5.00;;;15.60;99.90;;;;;;5023729;28;20595;-53
2023/09/05 04:03:28;;;;;;;5.83;5.27;;;15.60;91.40;;;;;;5022100;28;20223;-53
2023/09/05 04:05:54;;;;;;;5.93;5.17;;;15.60;99.90;;;;;;5024731;28;20788;-52
2023/09/05 04:08:20;;;;;;;5.33;4.70;;;15.50;93.40;;;;;;5028394;28;20430;-54
2023/09/05 04:10:45;;;;;;;4.60;4.20;;;15.60;99.90;;;;;;5022374;28;20236;-53
2023/09/05 04:13:11;;;;;;;5.47;4.70;;;15.70;41.70;;;;;;5021682;28;20650;-54
2023/09/05 04:15:37;;;;;;;5.30;4.80;;;15.70;1.00;;;;;;5020016;28;20591;-55
2023/09/05 04:18:02;;;;;;;6.07;4.70;;;15.70;1.00;;;;;;5024521;28;20224;-53
2023/09/05 04:20:29;;;;;;;5.63;5.10;;;15.70;1.00;;;;;;5027490;28;20187;-53
2023/09/05 04:22:55;;;;;;;6.83;5.13;;;15.70;1.00;;;;;;5023766;28;20239;-53
2023/09/05 04:25:20;;;;;;;5.03;4.53;;;15.70;1.00;;;;;;5020224;28;20516;-53
2023/09/05 04:27:46;;;;;;;6.17;5.17;;;15.70;1.00;;;;;;5025914;28;20187;-54
2023/09/05 04:30:12;;;;;;;5.40;4.90;;;15.70;1.00;;;;;;5024925;28;20200;-53
2023/09/05 04:32:38;;;;;;;5.50;4.67;;;15.70;1.00;;;;;;5025179;28;20837;-55
2023/09/05 04:35:05;;;;;;;6.23;4.93;;;15.60;1.00;;;;;;5024525;28;20495;-53
2023/09/05 04:37:31;;;;;;;5.23;4.73;;;15.70;1.00;;;;;;5025064;28;20197;-54
2023/09/05 04:39:57;;;;;;;7.03;5.67;;;15.70;1.00;;;;;;5026280;28;20434;-53
2023/09/05 04:42:25;;;;;;;16.23;5.73;;;15.60;1.00;;;;;;5022737;28;20435;-54
2023/09/05 04:44:51;;;;;;;8.13;6.00;;;15.50;1.00;;;;;;5026237;28;20907;-55
2023/09/05 04:47:20;;;;;;;5.33;4.83;;;15.40;1.00;;;;;;5022536;28;20595;-54
2023/09/05 04:49:50;;;;;;;5.83;4.83;;;15.40;99.90;;;;;;5022867;28;20184;-54
2023/09/05 04:52:17;;;;;;;10.00;5.90;;;15.50;1.00;;;;;;5023468;28;20920;-53
2023/09/05 04:54:42;;;;;;;6.00;5.03;;;15.40;99.90;;;;;;5024785;28;20800;-53
2023/09/05 04:57:10;;;;;;;5.23;4.73;;;15.50;99.90;;;;;;5020027;28;20433;-54
2023/09/05 04:59:39;;;;;;;5.93;5.33;;;15.60;99.90;;;;;;5022649;28;20269;-54
2023/09/05 05:02:04;;;;;;;6.33;5.70;;;15.60;94.50;;;;;;5022637;28;23554;-55
2023/09/05 05:04:30;;;;;;;7.50;6.60;;;15.50;87.60;;;;;;5024896;28;20477;-54
2023/09/05 05:06:56;;;;;;;7.20;5.80;;;15.50;1.60;;;;;;5021087;28;20207;-53
2023/09/05 05:09:22;;;;;;;10.10;5.73;;;15.50;99.90;;;;;;5025766;28;20285;-55
2023/09/05 05:11:47;;;;;;;10.00;5.87;;;15.60;99.90;;;;;;5031266;28;20452;-52
2023/09/05 05:14:13;;;;;;;7.23;5.73;;;15.60;99.90;;;;;;5028515;28;20852;-55
2023/09/05 05:16:42;;;;;;;10.03;6.93;;;15.60;99.90;;;;;;5029151;28;20184;-50
2023/09/05 05:19:09;;;;;;;7.80;6.97;;;15.50;1.00;;;;;;5028424;28;20682;-50
2023/09/05 05:21:35;;;;;;;10.10;7.07;;;15.20;1.00;;;;;;5030024;28;20505;-50
2023/09/05 05:24:01;;;;;;;10.77;8.03;;;15.00;99.90;;;;;;5029512;28;20579;-50
2023/09/05 05:26:28;;;;;;;10.10;8.20;;;14.80;1.00;;;;;;5030742;28;20289;-50
2023/09/05 05:28:54;;;;;;;9.87;8.53;;;14.60;1.00;;;;;;5027913;28;20190;-49
2023/09/05 05:31:19;;;;;;;10.90;9.07;;;14.50;99.90;;;;;;5025295;28;20431;-49
2023/09/05 05:33:45;;;;;;;13.67;9.23;;;14.40;1.00;;;;;;5029235;28;20710;-50
2023/09/05 05:36:12;;;;;;;14.37;8.63;;;14.40;1.00;;;;;;5030664;28;20225;-50
2023/09/05 05:38:37;;;;;;;12.77;9.63;;;14.30;1.00;;;;;;5026865;28;20643;-50
2023/09/05 05:41:07;;;;;;;11.80;9.40;;;14.40;99.90;;;;;;5033612;28;20453;-49
2023/09/05 05:43:33;;;;;;;13.50;10.57;;;14.30;99.90;;;;;;5033939;28;20226;-51
2023/09/05 05:45:58;;;;;;;19.20;10.00;;;14.30;1.00;;;;;;5031800;28;20977;-49
2023/09/05 05:48:25;;;;;;;14.57;10.10;;;14.30;1.00;;;;;;5033961;28;20193;-50
2023/09/05 05:50:51;;;;;;;12.97;11.00;;;14.40;1.00;;;;;;5037424;28;20186;-50
2023/09/05 05:53:17;;;;;;;22.40;10.20;;;14.40;99.90;;;;;;5035441;28;20758;-49
2023/09/05 05:55:43;;;;;;;18.07;11.17;;;14.50;99.90;;;;;;5027526;28;20441;-49
2023/09/05 05:58:09;;;;;;;23.87;11.57;;;14.60;1.00;;;;;;5032631;28;20922;-49
2023/09/05 06:00:34;;;;;;;21.47;12.20;;;14.70;1.00;;;;;;5032642;28;20194;-51
2023/09/05 06:03:00;;;;;;;16.43;11.40;;;14.80;1.00;;;;;;5034511;28;20187;-50
2023/09/05 06:05:25;;;;;;;18.83;11.13;;;14.90;1.00;;;;;;5044751;28;20232;-50
2023/09/05 06:07:51;;;;;;;18.30;11.20;;;15.10;1.00;;;;;;5017935;28;20545;-50
2023/09/05 06:10:17;;;;;;;14.10;10.23;;;15.30;30.70;;;;;;5022495;28;20568;-51
2023/09/05 06:12:42;;;;;;;17.70;11.97;;;15.60;1.00;;;;;;5019123;28;20187;-52
2023/09/05 06:15:09;;;;;;;13.03;10.60;;;15.90;99.90;;;;;;5021290;28;20202;-51
2023/09/05 06:17:34;;;;;;;14.33;9.83;;;16.20;1.00;;;;;;5023519;28;20310;-51
2023/09/05 06:20:00;;;;;;;15.73;10.33;;;16.50;1.00;;;;;;5019695;28;20548;-51
2023/09/05 06:22:26;;;;;;;19.03;10.67;;;16.70;16.50;;;;;;5020596;28;20224;-50
2023/09/05 06:24:51;;;;;;;12.60;8.97;;;16.90;99.90;;;;;;5018121;28;20227;-51
2023/09/05 06:27:17;;;;;;;9.70;8.13;;;17.10;99.90;;;;;;5015671;28;20448;-49
2023/09/05 06:29:42;;;;;;;11.53;8.10;;;17.40;1.00;;;;;;5018295;28;20193;-52
2023/09/05 06:32:08;;;;;;;9.23;7.60;;;17.60;99.90;;;;;;5023013;28;20177;-51
2023/09/05 06:34:33;;;;;;;14.77;7.57;;;17.70;99.90;;;;;;5023972;28;20644;-52
2023/09/05 06:37:01;;;;;;;11.83;7.83;;;18.00;99.90;;;;;;5018660;28;20586;-51
2023/09/05 06:39:26;;;;;;;12.70;7.97;;;18.10;1.00;;;;;;5025011;28;20225;-52
2023/09/05 06:41:52;;;;;;;9.47;6.87;;;18.30;1.00;;;;;;5019407;28;20450;-51
2023/09/05 06:44:18;;;;;;;10.17;6.90;;;18.50;99.90;;;;;;5027568;28;20707;-50
2023/09/05 06:46:43;;;;;;;7.33;6.57;;;18.70;99.90;;;;;;5027348;28;20214;-51
2023/09/05 06:49:09;;;;;;;10.80;7.43;;;18.90;99.90;;;;;;5023506;28;20270;-51
2023/09/05 06:51:34;;;;;;;8.10;7.30;;;19.10;99.90;;;;;;5027869;28;20193;-51
2023/09/05 06:54:00;;;;;;;7.50;6.50;;;19.40;99.90;;;;;;5022692;28;20246;-51
2023/09/05 06:56:26;;;;;;;13.67;6.80;;;19.60;1.00;;;;;;5023712;28;20191;-50
2023/09/05 06:58:52;;;;;;;10.33;6.40;;;19.90;1.00;;;;;;5023924;28;20226;-50
2023/09/05 07:01:17;;;;;;;8.30;6.30;;;20.10;1.00;;;;;;5027987;28;20180;-51
2023/09/05 07:03:43;;;;;;;9.77;6.73;;;20.40;1.00;;;;;;5022032;28;20478;-51
2023/09/05 07:06:08;;;;;;;7.23;5.60;;;20.60;1.00;;;;;;5021543;28;20667;-50
2023/09/05 07:08:34;;;;;;;8.10;6.40;;;20.90;1.00;;;;;;5021143;28;20206;-50
2023/09/05 07:11:00;;;;;;;7.20;5.90;;;21.00;1.00;;;;;;5019166;28;20219;-51
2023/09/05 07:13:25;;;;;;;8.70;6.53;;;21.30;1.00;;;;;;5029553;28;20199;-51
2023/09/05 07:15:51;;;;;;;11.23;6.07;;;21.60;1.00;;;;;;5026233;28;20716;-50
2023/09/05 07:18:17;;;;;;;6.00;5.40;;;21.80;1.00;;;;;;5025815;28;20237;-51
2023/09/05 07:20:43;;;;;;;7.93;5.33;;;22.10;1.00;;;;;;5023577;28;20191;-51
2023/09/05 07:23:08;;;;;;;13.03;5.80;;;22.30;1.00;;;;;;5022276;28;20239;-50
2023/09/05 07:25:38;;;;;;;9.73;5.90;;;22.40;1.00;;;;;;5020925;28;20192;-50
2023/09/05 07:28:04;;;;;;;7.83;5.33;;;22.60;1.00;;;;;;5025636;28;20210;-50
2023/09/05 07:30:32;;;;;;;8.53;5.70;;;22.90;1.00;;;;;;5024743;28;20566;-50
2023/09/05 07:32:58;;;;;;;10.20;5.57;;;23.30;1.00;;;;;;5023121;28;20451;-50
2023/09/05 07:35:24;;;;;;;12.67;6.37;;;23.50;1.00;;;;;;5024402;28;20446;-50
2023/09/05 07:37:51;;;;;;;8.47;5.83;;;23.80;1.00;;;;;;5018561;28;20249;-50
2023/09/05 07:40:16;;;;;;;9.33;5.00;;;24.10;1.00;;;;;;5025517;28;20459;-51
2023/09/05 07:42:42;;;;;;;10.73;5.30;;;24.40;1.00;;;;;;5027590;28;20922;-50
2023/09/05 07:45:10;;;;;;;9.30;5.50;;;24.80;1.00;;;;;;5025920;28;20212;-50
2023/09/05 07:47:35;;;;;;;11.53;5.53;;;25.20;1.00;;;;;;5025240;28;20184;-50
2023/09/05 07:50:01;;;;;;;9.23;4.80;;;25.30;1.00;;;;;;5027434;28;20460;-48
2023/09/05 07:52:27;;;;;;;6.23;5.07;;;25.30;1.00;;;;;;5022821;28;20184;-48
2023/09/05 07:54:52;;;;;;;7.63;4.77;;;25.30;1.00;;;;;;5018551;28;20218;-48
2023/09/05 07:57:18;;;;;;;5.47;4.57;;;25.20;1.00;;;;;;5022190;28;20613;-48
2023/09/05 07:59:44;;;;;;;5.50;3.87;;;25.40;1.00;;;;;;5026560;28;20592;-48
2023/09/05 08:02:10;;;;;;;6.80;5.00;;;25.70;1.00;;;;;;5023378;28;20187;-48
2023/09/05 08:04:38;;;;;;;6.93;5.00;;;26.00;1.00;;;;;;5021781;28;20987;-48
2023/09/05 08:07:07;;;;;;;8.60;4.43;;;26.00;1.00;;;;;;5022516;28;20505;-48
2023/09/05 08:09:33;;;;;;;6.43;4.80;;;25.90;1.00;;;;;;5018298;28;20454;-48
2023/09/05 08:12:01;;;;;;;11.27;4.57;;;26.20;1.00;;;;;;5024937;28;20445;-48
2023/09/05 08:14:27;;;;;;;8.30;4.90;;;26.40;1.00;;;;;;5024571;28;20434;-48
2023/09/05 08:16:53;;;;;;;5.83;5.00;;;26.40;1.00;;;;;;5022615;28;20435;-48
2023/09/05 08:19:18;;;;;;;6.30;4.40;;;26.40;1.00;;;;;;5018362;28;20198;-48
2023/09/05 08:21:44;;;;;;;6.03;4.50;;;26.40;1.00;;;;;;5019815;28;20482;-48
2023/09/05 08:24:09;;;;;;;6.67;4.23;;;26.60;1.00;;;;;;5019174;28;20273;-48
2023/09/05 08:26:36;;;;;;;5.27;4.40;;;26.60;1.00;;;;;;5017860;28;20181;-48
2023/09/05 08:29:03;;;;;;;6.90;4.60;;;26.90;1.00;;;;;;5023158;28;20202;-49
2023/09/05 08:31:30;;;;;;;6.43;4.67;;;27.10;1.00;;;;;;5023861;28;20449;-49
2023/09/05 08:33:55;;;;;;;7.47;4.60;;;27.40;1.00;;;;;;5022129;28;20435;-48
2023/09/05 08:36:21;;;;;;;7.77;5.33;;;27.80;1.00;;;;;;5019100;28;20501;-48
2023/09/05 08:38:47;;;;;;;6.37;4.10;;;28.00;1.00;;;;;;5025907;28;20191;-49
2023/09/05 08:41:12;;;;;;;8.23;4.60;;;28.10;1.00;;;;;;5019232;28;20457;-48
2023/09/05 08:43:38;;;;;;;6.70;4.60;;;28.20;1.00;;;;;;5023449;28;20214;-49
2023/09/05 08:46:04;;;;;;;8.90;4.80;;;28.30;1.00;;;;;;5025441;28;20651;-49
2023/09/05 08:48:33;;;;;;;5.80;4.77;;;28.40;1.00;;;;;;5022086;28;20195;-48
2023/09/05 08:51:04;;;;;;;8.17;4.30;;;28.30;1.00;;;;;;5020908;28;20196;-48
2023/09/05 08:53:35;;;;;;;5.33;3.47;;;28.20;1.00;;;;;;5018969;28;20441;-48
2023/09/05 08:56:01;;;;;;;6.90;4.23;;;28.10;1.00;;;;;;5019590;28;20442;-48
2023/09/05 08:58:29;;;;;;;8.00;4.30;;;28.10;1.00;;;;;;5019456;28;20444;-49
2023/09/05 09:00:55;;;;;;;5.53;3.73;;;28.30;1.00;;;;;;5019624;28;20462;-48
2023/09/05 09:03:21;;;;;;;5.33;3.83;;;28.50;1.00;;;;;;5024393;28;20492;-49
2023/09/05 09:05:47;;;;;;;5.80;3.67;;;28.70;1.00;;;;;;5022652;28;20431;-48
2023/09/05 09:08:13;;;;;;;8.50;4.03;;;28.50;1.00;;;;;;5022653;28;20180;-49
2023/09/05 09:10:40;;;;;;;11.00;4.57;;;28.50;1.00;;;;;;5019404;28;22199;-49
2023/09/05 09:13:16;;;;;;;5.53;4.07;;;28.10;1.00;;;;;;5018041;28;20431;-49
2023/09/05 09:15:43;;;;;;;7.13;4.10;;;27.80;1.00;;;;;;5026852;28;20477;-50
2023/09/05 09:18:13;;;;;;;5.27;4.13;;;27.80;1.00;;;;;;5020921;28;20503;-52
2023/09/05 09:20:46;;;;;;;5.47;4.30;;;27.70;1.00;;;;;;5024648;28;20537;-49
2023/09/05 09:23:12;;;;;;;6.07;3.93;;;27.70;1.00;;;;;;5024488;28;20504;-49
2023/09/05 09:25:48;;;;;;;9.53;4.47;;;27.50;1.00;;;;;;5017782;28;20453;-49
2023/09/05 09:28:28;;;;;;;5.77;3.90;;;27.40;1.00;;;;;;5019322;28;20565;-49
2023/09/05 09:30:59;;;;;;;5.17;3.93;;;27.20;1.00;;;;;;5020002;28;20481;-49
2023/09/05 09:33:25;;;;;;;4.90;4.10;;;26.90;1.00;;;;;;5017479;28;20431;-49
2023/09/05 09:36:05;;;;;;;8.67;4.20;;;26.70;1.00;;;;;;5027254;28;20472;-49
2023/09/05 09:38:31;;;;;;;5.03;3.67;;;26.50;1.00;;;;;;5023164;28;20191;-49
2023/09/05 09:41:01;;;;;;;5.60;3.83;;;26.30;1.00;;;;;;5018059;28;23069;-48
2023/09/05 09:43:27;;;;;;;4.33;3.50;;;26.20;1.00;;;;;;5020983;28;20438;-49
2023/09/05 09:45:53;;;;;;;6.83;4.17;;;26.00;1.00;;;;;;5017963;28;20950;-49
2023/09/05 09:48:21;;;;;;;4.27;3.87;;;25.80;1.00;;;;;;5024966;28;20457;-49
2023/09/05 09:50:48;;;;;;;5.40;3.73;;;25.90;1.00;;;;;;5017968;28;20219;-49
2023/09/05 09:53:18;;;;;;;7.00;4.00;;;25.90;1.00;;;;;;5024641;28;20430;-49
2023/09/05 09:55:45;;;;;;;6.33;4.40;;;25.70;1.00;;;;;;5023632;28;20450;-49
2023/09/05 09:58:18;;;;;;;6.40;4.47;;;25.70;1.00;;;;;;5018363;28;20460;-49
2023/09/05 10:00:45;;;;;;;4.20;3.80;;;25.80;1.00;;;;;;5021857;28;20499;-49
2023/09/05 10:03:13;;;;;;;5.20;4.20;;;25.70;1.00;;;;;;5020921;28;20530;-49
2023/09/05 10:05:41;;;;;;;6.77;4.00;;;25.80;1.00;;;;;;5016983;28;20436;-49
2023/09/05 10:08:09;;;;;;;6.20;3.37;;;25.80;1.00;;;;;;5022380;28;20442;-48
2023/09/05 10:10:40;;;;;;;10.67;4.03;;;26.00;1.00;;;;;;5024659;28;20915;-49
2023/09/05 10:13:08;;;;;;;4.87;3.23;;;26.00;1.00;;;;;;5027709;28;20441;-49
2023/09/05 10:15:36;;;;;;;4.50;3.17;;;26.20;1.00;;;;;;5025427;28;20441;-49
2023/09/05 10:18:02;;;;;;;6.23;3.20;;;26.30;1.00;;;;;;5024391;28;20521;-49
2023/09/05 10:20:30;;;;;;;8.30;3.47;;;26.50;1.00;;;;;;5020208;28;20434;-49
2023/09/05 10:22:55;;;;;;;11.60;3.27;;;26.80;1.00;;;;;;5022831;28;20839;-49
2023/09/05 10:25:23;;;;;;;5.97;3.10;;;27.00;1.00;;;;;;5024469;28;20479;-49
2023/09/05 10:27:49;;;;;;;5.47;3.67;;;27.40;1.00;;;;;;5020594;28;20241;-49
2023/09/05 10:30:15;;;;;;;7.03;3.30;;;27.80;1.00;;;;;;5030823;28;20434;-49
2023/09/05 10:32:44;;;;;;;3.60;2.83;;;28.20;1.00;;;;;;5024728;28;21011;-49
2023/09/05 10:35:10;;;;;;;4.80;3.17;;;28.50;1.00;;;;;;5024649;28;20187;-49
2023/09/05 10:37:49;;;;;;;7.73;3.50;;;29.00;1.00;;;;;;5019885;28;20437;-49
2023/09/05 10:40:15;;;;;;;8.77;3.30;;;29.60;1.00;;;;;;5029171;28;20426;-50
2023/09/05 10:42:54;;;;;;;4.40;3.83;;;30.10;1.00;;;;;;5021630;28;20502;-47
2023/09/05 10:45:22;;;;;;;6.93;3.07;;;30.60;1.00;;;;;;5025773;28;20573;-48
2023/09/05 10:47:53;;;;;;;4.20;3.10;;;31.20;99.90;;;;;;5024808;28;20446;-47
2023/09/05 10:50:20;;;;;;;7.53;2.97;;;31.70;99.90;;;;;;5024198;28;20426;-47
2023/09/05 10:53:11;;;;;;;5.60;3.00;;;32.30;99.90;;;;;;5030755;28;20848;-47
2023/09/05 10:55:44;;;;;;;4.80;3.37;;;32.70;99.90;;;;;;5022529;28;20447;-50
2023/09/05 10:58:43;;;;;;;5.73;2.97;;;33.00;99.90;;;;;;5028184;28;20464;-48
2023/09/05 11:01:29;;;;;;;2.80;2.60;;;33.30;99.90;;;;;;5025321;28;20438;-50
2023/09/05 11:03:55;;;;;;;12.23;3.70;;;34.00;99.90;;;;;;5021519;28;20486;-50
2023/09/05 11:06:22;;;;;;;3.87;2.77;;;34.40;99.90;;;;;;5021025;28;20856;-49
2023/09/05 11:09:07;;;;;;;3.53;3.23;;;34.80;99.90;;;;;;5023582;28;20438;-50
2023/09/05 11:11:37;;;;;;;8.90;3.30;;;35.10;99.90;;;;;;5019129;28;20985;-50
2023/09/05 11:14:07;;;;;;;3.30;3.00;;;35.10;99.90;;;;;;5023517;28;20431;-50
2023/09/05 11:16:53;;;;;;;3.07;2.77;;;35.50;99.90;;;;;;5029443;28;20438;-50
2023/09/05 11:19:39;;;;;;;8.27;3.30;;;35.50;99.90;;;;;;5022815;28;20438;-50
2023/09/05 11:22:11;;;;;;;5.73;3.30;;;35.30;99.90;;;;;;5022424;28;20872;-51
2023/09/05 11:24:45;;;;;;;4.93;3.10;;;35.40;99.90;;;;;;5020658;28;20462;-50
2023/09/05 11:27:11;;;;;;;4.03;2.70;;;35.60;99.90;;;;;;5024779;28;20457;-51
2023/09/05 11:29:39;;;;;;;5.37;2.63;;;36.00;99.90;;;;;;5018328;28;20483;-51
2023/09/05 11:32:06;;;;;;;5.13;2.57;;;35.80;99.90;;;;;;5025720;28;20453;-51
2023/09/05 11:34:33;;;;;;;3.53;3.20;;;35.90;99.90;;;;;;5025335;28;20431;-49
2023/09/05 11:37:00;;;;;;;6.17;3.07;;;36.20;99.90;;;;;;5023256;28;20461;-50
2023/09/05 11:39:28;;;;;;;4.80;3.40;;;36.40;99.90;;;;;;5019738;28;20446;-50
2023/09/05 11:41:58;;;;;;;7.60;2.90;;;36.30;99.90;;;;;;5026202;28;20427;-50
2023/09/05 11:44:31;;;;;;;5.70;3.40;;;36.60;99.90;;;;;;5020937;28;20516;-50
2023/09/05 11:46:58;;;;;;;10.17;3.60;;;36.60;99.90;;;;;;5021149;28;20484;-50
2023/09/05 11:49:23;;;;;;;6.90;3.30;;;36.60;99.90;;;;;;5023447;28;21014;-50
2023/09/05 11:51:49;;;;;;;5.27;3.27;;;36.70;99.90;;;;;;5023259;28;20477;-50
2023/09/05 11:54:16;;;;;;;4.10;3.20;;;36.70;99.90;;;;;;5020142;28;20556;-51
2023/09/05 11:56:41;;;;;;;7.73;2.87;;;36.60;99.90;;;;;;5022750;28;20190;-50
2023/09/05 11:59:07;;;;;;;5.20;3.03;;;36.40;99.90;;;;;;5025830;28;20443;-51
2023/09/05 12:01:32;;;;;;;8.20;3.33;;;36.50;99.90;;;;;;5022739;28;20266;-51
2023/09/05 12:04:05;;;;;;;7.27;3.50;;;36.70;99.90;;;;;;5027698;28;20253;-50
2023/09/05 12:06:34;;;;;;;8.33;3.40;;;36.80;99.90;;;;;;5022259;28;20199;-50
2023/09/05 12:09:01;;;;;;;3.17;2.87;;;36.70;99.90;;;;;;5024395;28;20457;-50
2023/09/05 12:11:27;;;;;;;6.00;2.77;;;36.60;99.90;;;;;;5022548;28;20936;-51
2023/09/05 12:13:57;;;;;;;3.90;3.13;;;36.90;99.90;;;;;;5021796;28;20445;-50
2023/09/05 12:16:22;;;;;;;7.47;2.70;;;36.90;99.90;;;;;;5022104;28;20527;-51
2023/09/05 12:18:56;;;;;;;2.90;2.70;;;37.00;99.90;;;;;;5022677;28;20421;-50
2023/09/05 12:21:22;;;;;;;6.07;2.60;;;37.00;99.90;;;;;;5027101;28;20231;-50
2023/09/05 12:23:48;;;;;;;9.13;2.93;;;37.00;99.90;;;;;;5026913;28;20478;-51
2023/09/05 12:26:14;;;;;;;3.40;3.10;;;36.90;99.90;;;;;;5023165;28;20431;-50
2023/09/05 12:28:41;;;;;;;4.63;2.73;;;37.00;99.90;;;;;;5022949;28;20489;-50
2023/09/05 12:31:15;;;;;;;5.33;2.80;;;37.20;99.90;;;;;;5024097;28;20586;-50
2023/09/05 12:33:41;;;;;;;4.17;2.33;;;37.10;99.90;;;;;;5021259;28;20446;-50
2023/09/05 12:36:06;;;;;;;3.97;2.63;;;37.00;99.90;;;;;;5017068;28;20449;-51
2023/09/05 12:38:32;;;;;;;8.17;3.40;;;37.20;99.90;;;;;;5025472;28;20184;-50
2023/09/05 12:40:58;;;;;;;2.47;2.27;;;37.10;99.90;;;;;;5024808;28;20187;-50
2023/09/05 12:43:26;;;;;;;5.80;2.43;;;37.10;99.90;;;;;;5022441;28;20206;-50
2023/09/05 12:45:52;;;;;;;3.20;2.70;;;37.10;99.90;;;;;;5023558;28;20219;-50
2023/09/05 12:48:18;;;;;;;3.43;2.27;;;37.10;99.90;;;;;;5020334;28;20488;-50
2023/09/05 12:50:46;;;;;;;2.50;2.30;;;37.20;99.90;;;;;;5020128;28;20190;-51